createdAt,value
2022-12-14T00:01:28.080Z,100605.31
2022-12-14T00:03:55.652Z,100604.41
2022-12-14T00:06:32.612Z,100605.22
2022-12-14T00:09:01.833Z,100601.81
2022-12-14T00:11:28.714Z,100600.09
2022-12-14T00:14:00.766Z,100603.63
2022-12-14T00:16:30.035Z,100602.63
2022-12-14T00:18:58.326Z,100598.50
2022-12-14T00:21:25.959Z,100601.97
2022-12-14T00:23:53.880Z,100590.91
2022-12-14T00:26:26.027Z,100596.91
2022-12-14T00:28:54.943Z,100592.66
2022-12-14T00:31:22.759Z,100587.53
2022-12-14T00:33:50.383Z,100578.22
2022-12-14T00:36:17.140Z,100584.22
2022-12-14T00:38:44.094Z,100574.75
2022-12-14T00:41:10.909Z,100565.38
2022-12-14T00:43:37.763Z,100565.44
2022-12-14T00:46:04.678Z,100571.41
2022-12-14T00:48:32.145Z,100555.09
2022-12-14T00:50:58.891Z,100575.81
2022-12-14T00:53:26.002Z,100566.53
2022-12-14T00:55:52.757Z,100565.81
2022-12-14T00:58:21.818Z,100577.94
2022-12-14T01:00:58.583Z,100579.81
2022-12-14T01:03:25.477Z,100580.88
2022-12-14T01:05:52.103Z,100570.09
2022-12-14T01:08:20.193Z,100580.44
2022-12-14T01:10:46.615Z,100571.13
2022-12-14T01:13:13.250Z,100579.03
2022-12-14T01:15:39.748Z,100578.13
2022-12-14T01:18:06.233Z,100569.75
2022-12-14T01:20:32.681Z,100575.75
2022-12-14T01:22:59.153Z,100567.38
2022-12-14T01:25:25.969Z,100569.88
2022-12-14T01:27:52.428Z,100542.69
2022-12-14T01:30:19.384Z,100560.69
2022-12-14T01:32:46.758Z,100565.94
2022-12-14T01:35:13.186Z,100556.47
2022-12-14T01:37:39.731Z,100553.16
2022-12-14T01:40:06.485Z,100521.88
2022-12-14T01:42:35.823Z,100547.34
2022-12-14T01:45:02.239Z,100545.06
2022-12-14T01:47:30.547Z,100545.91
2022-12-14T01:50:09.940Z,100539.97
2022-12-14T01:52:46.922Z,100547.06
2022-12-14T01:55:42.171Z,100544.56
2022-12-14T01:58:18.742Z,100542.13
2022-12-14T02:00:45.769Z,100533.69
2022-12-14T02:03:23.844Z,100538.13
2022-12-14T02:05:59.370Z,100530.59
2022-12-14T02:08:27.136Z,100544.44
2022-12-14T02:10:55.303Z,100547.16
2022-12-14T02:13:26.772Z,100534.25
2022-12-14T02:15:53.752Z,100535.19
2022-12-14T02:18:26.193Z,100524.09
2022-12-14T02:21:12.955Z,100529.34
2022-12-14T02:24:23.055Z,100524.31
2022-12-14T02:27:12.528Z,100526.94
2022-12-14T02:29:59.137Z,100525.34
2022-12-14T02:32:40.224Z,100518.59
2022-12-14T02:35:27.098Z,100517.75
2022-12-14T02:38:12.648Z,100500.72
2022-12-14T02:40:42.218Z,100508.41
2022-12-14T02:43:32.786Z,100514.38
2022-12-14T02:46:27.494Z,100504.13
2022-12-14T02:49:03.094Z,100504.00
2022-12-14T02:51:57.260Z,100497.81
2022-12-14T02:54:37.904Z,100494.31
2022-12-14T02:57:14.119Z,100487.38
2022-12-14T02:59:42.630Z,100492.44
2022-12-14T03:02:11.144Z,100488.97
2022-12-14T03:04:45.790Z,100488.13
2022-12-14T03:07:34.187Z,100489.59
2022-12-14T03:10:09.209Z,100488.06
2022-12-14T03:12:40.293Z,100481.28
2022-12-14T03:15:10.279Z,100483.88
2022-12-14T03:17:38.524Z,100480.28
2022-12-14T03:20:13.044Z,100475.38
2022-12-14T03:22:46.394Z,100472.91
2022-12-14T03:25:16.953Z,100467.78
2022-12-14T03:27:53.860Z,100463.56
2022-12-14T03:30:43.756Z,100461.91
2022-12-14T03:33:15.616Z,100456.88
2022-12-14T03:35:59.850Z,100450.16
2022-12-14T03:38:39.084Z,100457.88
2022-12-14T03:41:29.607Z,100450.88
2022-12-14T03:44:13.427Z,100457.88
2022-12-14T03:46:57.540Z,100461.34
2022-12-14T03:49:47.339Z,100450.31
2022-12-14T03:52:25.961Z,100455.47
2022-12-14T03:55:04.525Z,100450.28
2022-12-14T03:58:00.833Z,100446.91
2022-12-14T04:00:31.863Z,100434.22
2022-12-14T04:03:15.306Z,100444.56
2022-12-14T04:06:04.943Z,100443.63
2022-12-14T04:09:03.681Z,100435.16
2022-12-14T04:11:55.327Z,100429.16
2022-12-14T04:14:47.677Z,100433.63
2022-12-14T04:17:38.605Z,100432.84
2022-12-14T04:20:05.083Z,100432.09
2022-12-14T04:22:38.085Z,100433.03
2022-12-14T04:25:30.416Z,100420.09
2022-12-14T04:28:32.115Z,100422.78
2022-12-14T04:31:04.121Z,100416.97
2022-12-14T04:33:47.759Z,100424.69
2022-12-14T04:36:28.199Z,100422.19
2022-12-14T04:39:00.226Z,100419.75
2022-12-14T04:41:31.546Z,100414.56
2022-12-14T04:44:02.058Z,100406.84
2022-12-14T04:46:36.309Z,100417.25
2022-12-14T04:49:29.262Z,100410.34
2022-12-14T04:52:05.464Z,100394.19
2022-12-14T04:54:45.141Z,100403.69
2022-12-14T04:57:21.206Z,100384.81
2022-12-14T04:59:48.680Z,100400.28
2022-12-14T05:02:21.208Z,100402.06
2022-12-14T05:05:10.932Z,100401.22
2022-12-14T05:08:06.346Z,100392.63
2022-12-14T05:10:37.850Z,100397.81
2022-12-14T05:13:26.295Z,100392.63
2022-12-14T05:15:56.057Z,100393.47
2022-12-14T05:18:23.027Z,100393.44
2022-12-14T05:20:50.647Z,100396.84
2022-12-14T05:23:17.384Z,100382.91
2022-12-14T05:25:43.984Z,100392.34
2022-12-14T05:28:14.775Z,100382.84
2022-12-14T05:30:41.209Z,100384.41
2022-12-14T05:33:16.149Z,100375.81
2022-12-14T05:35:42.539Z,100374.00
2022-12-14T05:38:10.058Z,100372.38
2022-12-14T05:40:36.522Z,100372.22
2022-12-14T05:43:07.052Z,100355.97
2022-12-14T05:45:33.473Z,100363.59
2022-12-14T05:47:59.904Z,100361.81
2022-12-14T05:50:26.571Z,100366.09
2022-12-14T05:52:53.083Z,100365.34
2022-12-14T05:55:19.550Z,100350.84
2022-12-14T05:57:45.915Z,100352.59
2022-12-14T06:00:12.659Z,100360.88
2022-12-14T06:02:39.253Z,100356.53
2022-12-14T06:05:05.946Z,100349.63
2022-12-14T06:07:32.502Z,100357.22
2022-12-14T06:09:58.921Z,100342.66
2022-12-14T06:12:26.093Z,100362.22
2022-12-14T06:14:52.680Z,100353.50
2022-12-14T06:17:19.109Z,100351.69
2022-12-14T06:19:49.630Z,100335.41
2022-12-14T06:22:17.073Z,100348.25
2022-12-14T06:24:43.476Z,100342.94
2022-12-14T06:27:09.899Z,100330.91
2022-12-14T06:29:36.454Z,100337.53
2022-12-14T06:32:02.893Z,100343.59
2022-12-14T06:34:32.828Z,100343.50
2022-12-14T06:37:01.710Z,100344.25
2022-12-14T06:39:28.739Z,100340.72
2022-12-14T06:41:55.195Z,100335.44
2022-12-14T06:44:21.583Z,100353.53
2022-12-14T06:46:48.141Z,100340.66
2022-12-14T06:49:15.880Z,100340.56
2022-12-14T06:51:43.234Z,100353.53
2022-12-14T06:54:12.179Z,100346.47
2022-12-14T06:56:39.012Z,100341.38
2022-12-14T06:59:05.547Z,100338.81
2022-12-14T07:01:32.612Z,100319.19
2022-12-14T07:03:59.653Z,100332.78
2022-12-14T07:06:28.667Z,100337.88
2022-12-14T07:08:57.190Z,100321.50
2022-12-14T07:11:24.957Z,100312.84
2022-12-14T07:13:51.404Z,100328.22
2022-12-14T07:16:20.951Z,100325.56
2022-12-14T07:18:47.815Z,100311.91
2022-12-14T07:21:16.841Z,100322.13
2022-12-14T07:23:45.190Z,100323.69
2022-12-14T07:26:23.836Z,100315.75
2022-12-14T07:28:50.744Z,100318.31
2022-12-14T07:31:19.971Z,100307.09
2022-12-14T07:33:46.978Z,100312.03
2022-12-14T07:36:16.769Z,100310.16
2022-12-14T07:38:45.169Z,100308.47
2022-12-14T07:41:17.734Z,100317.63
2022-12-14T07:43:49.742Z,100322.81
2022-12-14T07:46:19.464Z,100319.09
2022-12-14T07:48:47.750Z,100306.25
2022-12-14T07:51:16.724Z,100327.53
2022-12-14T07:53:43.732Z,100320.63
2022-12-14T07:56:18.625Z,100315.13
2022-12-14T07:58:45.467Z,100314.13
2022-12-14T08:01:13.714Z,100313.16
2022-12-14T08:03:42.106Z,100312.94
2022-12-14T08:06:10.572Z,100307.91
2022-12-14T08:08:37.108Z,100305.00
2022-12-14T08:11:04.441Z,100302.38
2022-12-14T08:13:32.244Z,100319.31
2022-12-14T08:16:12.351Z,100316.50
2022-12-14T08:18:39.292Z,100318.09
2022-12-14T08:21:07.875Z,100319.66
2022-12-14T08:23:35.370Z,100310.97
2022-12-14T08:26:03.003Z,100316.81
2022-12-14T08:28:31.231Z,100296.16
2022-12-14T08:30:58.752Z,100307.19
2022-12-14T08:33:25.237Z,100306.97
2022-12-14T08:35:51.844Z,100312.09
2022-12-14T08:38:18.234Z,100317.25
2022-12-14T08:40:44.638Z,100306.75
2022-12-14T08:43:11.064Z,100303.13
2022-12-14T08:45:37.562Z,100310.81
2022-12-14T08:48:04.270Z,100306.19
2022-12-14T08:50:31.263Z,100304.31
2022-12-14T08:52:57.682Z,100295.41
2022-12-14T08:55:29.117Z,100286.47
2022-12-14T08:57:58.266Z,100286.00
2022-12-14T09:00:24.725Z,100276.31
2022-12-14T09:02:51.862Z,100275.78
2022-12-14T09:05:18.441Z,100275.56
2022-12-14T09:07:45.499Z,100263.28
2022-12-14T09:10:12.719Z,100264.75
2022-12-14T09:12:39.551Z,100277.94
2022-12-14T09:15:07.161Z,100275.81
2022-12-14T09:17:34.433Z,100281.50
2022-12-14T09:20:00.828Z,100270.00
2022-12-14T09:22:27.336Z,100260.31
2022-12-14T09:24:54.540Z,100276.28
2022-12-14T09:27:22.358Z,100261.28
2022-12-14T09:29:49.706Z,100264.34
2022-12-14T09:32:16.311Z,100264.66
2022-12-14T09:34:42.751Z,100261.78
2022-12-14T09:37:09.271Z,100269.06
2022-12-14T09:39:36.441Z,100271.34
2022-12-14T09:42:26.018Z,100269.41
2022-12-14T09:45:17.195Z,100261.19
2022-12-14T09:47:57.555Z,100268.72
2022-12-14T09:50:24.197Z,100270.28
2022-12-14T09:53:05.109Z,100271.59
2022-12-14T09:55:36.931Z,100262.41
2022-12-14T09:58:03.277Z,100268.88
2022-12-14T10:00:46.927Z,100255.53
2022-12-14T10:03:32.157Z,100261.41
2022-12-14T10:06:15.582Z,100259.75
2022-12-14T10:08:57.881Z,100252.09
2022-12-14T10:11:44.894Z,100250.09
2022-12-14T10:14:20.375Z,100254.06
2022-12-14T10:17:08.206Z,100240.31
2022-12-14T10:19:44.501Z,100238.88
2022-12-14T10:22:16.020Z,100226.91
2022-12-14T10:24:46.268Z,100226.72
2022-12-14T10:27:17.514Z,100219.09
2022-12-14T10:29:49.630Z,100217.06
2022-12-14T10:32:21.895Z,100216.34
2022-12-14T10:34:51.666Z,100208.56
2022-12-14T10:37:26.065Z,100209.31
2022-12-14T10:40:32.592Z,100206.50
2022-12-14T10:43:22.668Z,100208.63
2022-12-14T10:46:13.765Z,100204.94
2022-12-14T10:48:49.152Z,100202.97
2022-12-14T10:51:24.455Z,100210.47
2022-12-14T10:54:20.776Z,100203.84
2022-12-14T10:56:50.004Z,100203.13
2022-12-14T10:59:23.877Z,100203.63
2022-12-14T11:02:01.031Z,100196.78
2022-12-14T11:04:32.115Z,100190.66
2022-12-14T11:07:19.684Z,100187.88
2022-12-14T11:09:46.611Z,100190.78
2022-12-14T11:12:13.147Z,100188.03
2022-12-14T11:14:52.764Z,100180.19
2022-12-14T11:17:40.069Z,100181.97
2022-12-14T11:20:24.215Z,100172.66
2022-12-14T11:23:05.123Z,100161.63
2022-12-14T11:25:47.137Z,100159.06
2022-12-14T11:28:49.871Z,100174.09
2022-12-14T11:31:26.502Z,100173.75
2022-12-14T11:33:58.255Z,100179.91
2022-12-14T11:36:30.225Z,100180.06
2022-12-14T11:39:07.224Z,100167.81
2022-12-14T11:41:36.946Z,100182.38
2022-12-14T11:44:13.890Z,100166.28
2022-12-14T11:46:44.974Z,100175.78
2022-12-14T11:49:33.928Z,100166.25
2022-12-14T11:52:15.245Z,100159.66
2022-12-14T11:54:49.951Z,100147.41
2022-12-14T11:57:28.118Z,100155.31
2022-12-14T12:00:00.223Z,100157.22
2022-12-14T12:02:33.597Z,100158.06
2022-12-14T12:05:07.600Z,100158.72
2022-12-14T12:07:37.617Z,100152.31
2022-12-14T12:10:19.438Z,100149.75
2022-12-14T12:12:52.411Z,100154.91
2022-12-14T12:15:32.481Z,100152.19
2022-12-14T12:18:08.306Z,100145.81
2022-12-14T12:20:34.807Z,100143.00
2022-12-14T12:23:15.509Z,100144.28
2022-12-14T12:25:44.924Z,100127.94
2022-12-14T12:28:30.594Z,100143.50
2022-12-14T12:31:09.007Z,100143.38
2022-12-14T12:34:00.951Z,100141.75
2022-12-14T12:36:27.418Z,100138.97
2022-12-14T12:39:05.549Z,100132.50
2022-12-14T12:41:50.623Z,100134.69
2022-12-14T12:44:35.870Z,100135.47
2022-12-14T12:47:25.177Z,100136.81
2022-12-14T12:49:53.035Z,100131.91
2022-12-14T12:52:27.388Z,100139.88
2022-12-14T12:55:30.687Z,100134.75
2022-12-14T12:58:01.824Z,100126.22
2022-12-14T13:00:31.194Z,100136.44
2022-12-14T13:03:09.943Z,100128.50
2022-12-14T13:05:48.709Z,100121.25
2022-12-14T13:08:32.709Z,100123.94
2022-12-14T13:11:24.992Z,100119.75
2022-12-14T13:13:56.425Z,100108.88
2022-12-14T13:16:29.937Z,100115.59
2022-12-14T13:19:25.427Z,100107.91
2022-12-14T13:21:52.322Z,100110.69
2022-12-14T13:24:21.517Z,100109.59
2022-12-14T13:27:15.484Z,100094.47
2022-12-14T13:30:04.914Z,100108.16
2022-12-14T13:32:37.444Z,100110.66
2022-12-14T13:35:04.185Z,100108.41
2022-12-14T13:37:44.026Z,100097.59
2022-12-14T13:40:44.801Z,100096.09
2022-12-14T13:43:55.660Z,100091.66
2022-12-14T13:46:25.165Z,100095.63
2022-12-14T13:48:55.373Z,100097.94
2022-12-14T13:51:32.581Z,100106.50
2022-12-14T13:54:03.362Z,100108.22
2022-12-14T13:56:34.355Z,100113.31
2022-12-14T13:59:05.290Z,100115.47
2022-12-14T14:01:47.418Z,100114.03
2022-12-14T14:04:17.105Z,100113.53
2022-12-14T14:06:47.413Z,100116.28
2022-12-14T14:09:34.020Z,100107.53
2022-12-14T14:12:01.774Z,100107.34
2022-12-14T14:14:43.477Z,100111.81
2022-12-14T14:17:34.763Z,100102.97
2022-12-14T14:20:07.172Z,100102.06
2022-12-14T14:22:33.534Z,100112.38
2022-12-14T14:25:23.676Z,100104.50
2022-12-14T14:27:51.228Z,100105.59
2022-12-14T14:30:37.112Z,100100.34
2022-12-14T14:33:46.062Z,100099.16
2022-12-14T14:36:33.527Z,100111.75
2022-12-14T14:39:24.476Z,100104.44
2022-12-14T14:41:54.381Z,100091.59
2022-12-14T14:44:43.786Z,100101.09
2022-12-14T14:47:31.600Z,100087.53
2022-12-14T14:50:01.894Z,100093.56
2022-12-14T14:52:37.470Z,100093.28
2022-12-14T14:58:46.638Z,100098.81
2022-12-14T15:01:21.030Z,100091.31
2022-12-14T15:03:55.546Z,100100.63
2022-12-14T15:06:26.515Z,100100.50
2022-12-14T15:09:09.453Z,100102.91
2022-12-14T15:11:57.090Z,100109.78
2022-12-14T15:14:48.468Z,100097.56
2022-12-14T15:17:21.800Z,100100.03
2022-12-14T15:19:50.061Z,100107.63
2022-12-14T15:22:19.831Z,100105.84
2022-12-14T15:24:49.222Z,100100.22
2022-12-14T15:27:27.316Z,100111.84
2022-12-14T15:30:05.837Z,100112.34
2022-12-14T15:32:33.044Z,100125.06
2022-12-14T15:35:06.916Z,100104.88
2022-12-14T15:37:48.913Z,100122.41
2022-12-14T15:40:24.155Z,100127.44
2022-12-14T15:42:56.907Z,100110.78
2022-12-14T15:45:27.891Z,100130.00
2022-12-14T15:47:54.824Z,100121.09
2022-12-14T15:50:25.631Z,100129.03
2022-12-14T15:52:55.725Z,100124.28
2022-12-14T15:55:32.336Z,100132.13
2022-12-14T15:58:08.050Z,100127.44
2022-12-14T16:00:39.439Z,100117.50
2022-12-14T16:03:25.278Z,100135.09
2022-12-14T16:05:52.236Z,100121.78
2022-12-14T16:08:20.915Z,100121.19
2022-12-14T16:10:51.178Z,100116.34
2022-12-14T16:13:17.551Z,100125.09
2022-12-14T16:15:46.121Z,100127.16
2022-12-14T16:18:17.819Z,100128.38
2022-12-14T16:20:54.846Z,100122.03
2022-12-14T16:23:27.745Z,100119.66
2022-12-14T16:25:58.888Z,100131.13
2022-12-14T16:28:29.056Z,100122.00
2022-12-14T16:31:00.362Z,100125.72
2022-12-14T16:33:27.886Z,100121.66
2022-12-14T16:36:03.669Z,100122.78
2022-12-14T16:38:31.272Z,100118.91
2022-12-14T16:41:01.590Z,100119.75
2022-12-14T16:43:31.222Z,100119.03
2022-12-14T16:46:03.859Z,100122.44
2022-12-14T16:48:40.170Z,100124.63
2022-12-14T16:51:17.992Z,100118.81
2022-12-14T16:53:59.255Z,100112.97
2022-12-14T16:56:45.347Z,100114.28
2022-12-14T16:59:33.783Z,100103.16
2022-12-14T17:02:00.403Z,100111.03
2022-12-14T17:04:37.490Z,100116.47
2022-12-14T17:07:04.142Z,100122.53
2022-12-14T17:09:33.291Z,100110.59
2022-12-14T17:12:02.693Z,100111.59
2022-12-14T17:14:29.195Z,100099.88
2022-12-14T17:17:01.784Z,100107.56
2022-12-14T17:19:39.238Z,100098.31
2022-12-14T17:22:14.946Z,100116.63
2022-12-14T17:24:41.371Z,100107.28
2022-12-14T17:27:07.749Z,100106.38
2022-12-14T17:29:34.209Z,100098.13
2022-12-14T17:32:03.300Z,100100.63
2022-12-14T17:34:30.217Z,100102.56
2022-12-14T17:36:57.003Z,100112.19
2022-12-14T17:39:24.748Z,100095.28
2022-12-14T17:41:51.372Z,100102.19
2022-12-14T17:44:20.189Z,100100.53
2022-12-14T17:46:50.492Z,100118.66
2022-12-14T17:49:33.714Z,100111.09
2022-12-14T17:52:04.841Z,100098.34
2022-12-14T17:54:32.231Z,100102.88
2022-12-14T17:56:59.999Z,100119.94
2022-12-14T17:59:26.814Z,100125.16
2022-12-14T18:01:53.327Z,100108.16
2022-12-14T18:04:19.844Z,100107.38
2022-12-14T18:06:46.239Z,100121.84
2022-12-14T18:09:13.057Z,100107.41
2022-12-14T18:12:00.311Z,100116.69
2022-12-14T18:14:25.909Z,100118.50
2022-12-14T18:16:52.333Z,100106.38
2022-12-14T18:19:19.845Z,100119.00
2022-12-14T18:21:46.259Z,100110.28
2022-12-14T18:24:16.309Z,100106.59
2022-12-14T18:26:44.839Z,100109.81
2022-12-14T18:29:14.160Z,100088.19
2022-12-14T18:31:40.839Z,100099.94
2022-12-14T18:34:07.396Z,100098.84
2022-12-14T18:36:33.815Z,100104.00
2022-12-14T18:39:01.070Z,100099.69
2022-12-14T18:41:32.323Z,100099.41
2022-12-14T18:44:00.498Z,100102.63
2022-12-14T18:46:27.765Z,100077.78
2022-12-14T18:48:54.349Z,100080.50
2022-12-14T18:51:23.581Z,100110.44
2022-12-14T18:53:50.789Z,100107.75
2022-12-14T18:56:17.847Z,100117.47
2022-12-14T18:58:45.447Z,100110.00
2022-12-14T19:01:16.172Z,100122.94
2022-12-14T19:03:43.918Z,100115.44
2022-12-14T19:09:02.105Z,100134.00
2022-12-14T19:11:40.582Z,100140.31
2022-12-14T19:14:07.184Z,100134.63
2022-12-14T19:16:33.932Z,100152.84
2022-12-14T19:19:00.792Z,100131.06
2022-12-14T19:21:29.285Z,100131.41
2022-12-14T19:23:56.017Z,100134.81
2022-12-14T19:26:22.662Z,100127.06
2022-12-14T19:28:49.095Z,100130.69
2022-12-14T19:31:15.567Z,100131.78
2022-12-14T19:33:42.031Z,100130.22
2022-12-14T19:36:09.280Z,100147.47
2022-12-14T19:38:37.008Z,100144.31
2022-12-14T19:41:06.860Z,100155.50
2022-12-14T19:43:34.501Z,100138.81
2022-12-14T19:46:08.714Z,100161.19
2022-12-14T19:48:35.311Z,100144.25
2022-12-14T19:51:10.653Z,100146.91
2022-12-14T19:53:38.174Z,100138.59
2022-12-14T19:56:05.483Z,100134.34
2022-12-14T19:58:32.411Z,100141.81
2022-12-14T20:00:59.064Z,100137.84
2022-12-14T20:03:25.700Z,100154.03
2022-12-14T20:05:58.449Z,100124.09
2022-12-14T20:08:26.257Z,100141.19
2022-12-14T20:10:53.116Z,100122.47
2022-12-14T20:13:20.243Z,100131.97
2022-12-14T20:15:54.902Z,100133.59
2022-12-14T20:18:22.591Z,100126.88
2022-12-14T20:20:50.226Z,100125.28
2022-12-14T20:23:21.950Z,100136.47
2022-12-14T20:25:49.315Z,100131.38
2022-12-14T20:28:15.800Z,100117.78
2022-12-14T20:30:44.158Z,100128.72
2022-12-14T20:33:10.685Z,100117.72
2022-12-14T20:35:37.379Z,100120.94
2022-12-14T20:38:03.827Z,100114.88
2022-12-14T20:40:34.962Z,100111.84
2022-12-14T20:43:03.011Z,100116.63
2022-12-14T20:45:29.440Z,100107.53
2022-12-14T20:47:55.883Z,100092.59
2022-12-14T20:50:22.352Z,100108.56
2022-12-14T20:52:49.125Z,100102.28
2022-12-14T20:55:15.846Z,100112.06
2022-12-14T20:57:42.311Z,100102.94
2022-12-14T21:00:09.590Z,100123.13
2022-12-14T21:02:36.236Z,100100.53
2022-12-14T21:05:02.774Z,100118.25
2022-12-14T21:07:31.256Z,100115.50
2022-12-14T21:09:57.692Z,100117.81
2022-12-14T21:12:24.473Z,100121.88
2022-12-14T21:14:53.507Z,100120.91
2022-12-14T21:17:22.017Z,100112.19
2022-12-14T21:19:48.560Z,100107.75
2022-12-14T21:22:17.473Z,100131.03
2022-12-14T21:25:02.344Z,100139.59
2022-12-14T21:27:32.707Z,100129.22
2022-12-14T21:30:00.464Z,100142.06
2022-12-14T21:32:27.514Z,100137.69
2022-12-14T21:34:54.120Z,100130.88
2022-12-14T21:37:20.812Z,100123.25
2022-12-14T21:39:53.873Z,100136.00
2022-12-14T21:42:22.013Z,100132.84
2022-12-14T21:44:50.668Z,100137.31
2022-12-14T21:47:22.948Z,100146.91
2022-12-14T21:49:49.386Z,100146.19
2022-12-14T21:52:19.634Z,100161.94
2022-12-14T21:54:46.234Z,100157.56
2022-12-14T21:57:38.528Z,100143.19
2022-12-14T22:00:07.955Z,100146.59
2022-12-14T22:02:34.752Z,100143.19
2022-12-14T22:05:01.311Z,100149.06
2022-12-14T22:07:32.965Z,100147.22
2022-12-14T22:09:59.769Z,100154.97
2022-12-14T22:12:26.455Z,100158.34
2022-12-14T22:14:53.097Z,100157.44
2022-12-14T22:17:19.604Z,100180.72
2022-12-14T22:19:46.222Z,100173.69
2022-12-14T22:22:15.230Z,100172.81
2022-12-14T22:24:42.567Z,100172.94
2022-12-14T22:27:12.820Z,100164.47
2022-12-14T22:29:39.621Z,100174.03
2022-12-14T22:32:07.148Z,100163.06
2022-12-14T22:34:33.799Z,100168.34
2022-12-14T22:37:00.203Z,100161.66
2022-12-14T22:39:26.619Z,100168.78
2022-12-14T22:41:53.038Z,100164.59
2022-12-14T22:44:19.453Z,100166.53
2022-12-14T22:46:46.049Z,100177.03
2022-12-14T22:49:16.782Z,100178.97
2022-12-14T22:51:43.228Z,100168.13
2022-12-14T22:54:11.400Z,100174.63
2022-12-14T22:56:48.601Z,100193.63
2022-12-14T22:59:20.371Z,100188.72
2022-12-14T23:01:50.687Z,100178.75
2022-12-14T23:04:17.735Z,100175.63
2022-12-14T23:06:44.848Z,100177.38
2022-12-14T23:09:29.853Z,100176.75
2022-12-14T23:12:19.686Z,100179.56
2022-12-14T23:15:06.531Z,100170.38
2022-12-14T23:17:51.494Z,100165.41
2022-12-14T23:20:36.254Z,100171.63
2022-12-14T23:23:25.152Z,100169.22
2022-12-14T23:26:09.834Z,100170.97
2022-12-14T23:28:55.123Z,100172.75
2022-12-14T23:31:40.671Z,100166.03
2022-12-14T23:34:25.616Z,100167.97
2022-12-14T23:37:13.757Z,100165.38
2022-12-14T23:40:01.471Z,100159.31
2022-12-14T23:42:46.335Z,100161.03
2022-12-14T23:45:31.413Z,100150.78
2022-12-14T23:48:16.290Z,100182.38
2022-12-14T23:51:01.547Z,100148.50
2022-12-14T23:53:50.077Z,100147.56
2022-12-14T23:56:35.578Z,100143.09
2022-12-14T23:59:20.349Z,100145.22
